トロムソ空港の過去48時間の天気

トロムソ空港 (Tromso / Langnes)

現在時刻: 9/22 18:42 CEST (9/22 16:42 UTC) 以下の時間は現地時間です。

過去48時間のMETAR気象情報
時間 風向 風速(m/s) 視程 気温(℃) 湿度(%) 気圧(hPa) 天気現象
22 18:20 南西 7 10km以上 6 81 995 周辺でしゅう雨
22 17:50 南西 9 9000m 5 87 994 弱いしゅう雨
22 17:20 南西 11 10km以上 6 81 994 弱いしゅう雨
22 16:50 南西 11 10km以上 6 81 994 弱いしゅう雨
22 16:20 南南西 9 9000m 6 87 993 弱いしゅう雨
22 15:50 南西 9 9000m 6 87 993 弱いしゅう雨
22 15:20 南南西 9 10km以上 6 81 993 弱いしゅう雨
22 14:50 南南西 9 10km以上 6 81 992 周辺でしゅう雨
22 14:20 西南西 9 10km以上 6 76 992 弱いしゅう雨
22 13:50 南南西 9 10km以上 6 76 991 弱いしゅう雨
22 13:20 西 10 10km以上 7 66 991 弱い雨
22 12:50 西南西 8 10km以上 6 76 990 弱いしゅう雨
22 12:20 西南西 9 10km以上 7 66 989 弱いしゅう雨
22 11:50 西南西 7 10km以上 6 76 989 周辺でしゅう雨
22 11:20 南西 7 10km以上 6 76 988
22 10:50 西 12 10km以上 6 76 987 弱いしゅう雨
22 10:20 西南西 10 10km以上 6 76 986 周辺でしゅう雨
22 09:50 西南西 5 10km以上 7 70 986 周辺でしゅう雨
22 09:20 西 9 10km以上 8 66 985 周辺でしゅう雨
22 08:50 西 9 10km以上 7 70 984 弱い霧雨
22 08:20 西 13 10km以上 6 87 984
22 07:50 西 13 8000m 8 66 983 弱い雨
22 07:20 西 13 8000m 7 70 983 弱い雨
22 06:50 西 12 8000m 7 76 982 弱い雨
22 06:20 西 14 5000m 7 81 982 弱い雨
22 05:50 西 14 4000m 7 81 981
22 04:50 西 13 4500m 7 81 979
22 04:20 西 17 4000m 7 87 978
22 03:20 西 11 5000m 8 81 976
22 02:50 西 11 5000m 8 81 975
22 02:20 西 12 7000m 8 81 975
22 01:50 西南西 10 6000m 8 81 974
22 01:20 西南西 7 8000m 8 81 974
22 00:50 南西 6 7000m 7 81 974
22 00:20 西南西 7 8000m 8 81 973
21 23:50 西 8 6000m 8 81 972
21 23:20 南南西 10 5000m 6 87 971
21 22:50 南西 9 6000m 7 87 971 弱い雨
21 22:20 南南西 9 7000m 7 87 971 弱い雨
21 21:50 南南西 8 8000m 7 87 971 しゅう雨
ENTC 221620Z 22014KT 9999 VCSH FEW005 SCT020 BKN036 06/03 Q0995 TEMPO SHRA BKN014CB RMK WIND 2600FT 21015KT
ENTC 221550Z 22018KT 9000 -SHRA FEW005 SCT010 BKN036 05/03 Q0994 TEMPO SHRA BKN014CB RMK WIND 2600FT 21015KT
ENTC 221520Z 22021KT 9999 -SHRA FEW005 BKN010 OVC037 06/03 Q0994 TEMPO SHRA BKN020 RMK WIND 2600FT 25026G38KT
ENTC 221450Z 23021KT 9999 -SHRA FEW005 SCT012 BKN020 06/03 Q0994 TEMPO SHRA SCT015CB RMK WIND 2600FT 25030G40KT
ENTC 221420Z 21017KT 9000 -SHRA FEW006 SCT022 BKN028 06/04 Q0993 TEMPO SHRA SCT015CB RMK WIND 2600FT 26025G36KT
ENTC 221350Z 22018KT 9000 -SHRA SCT005 SCT016 BKN026 06/04 Q0993 TEMPO SHRA SCT015CB RMK WIND 2600FT 26030G41KT
ENTC 221320Z 21018KT 9999 -SHRA FEW018 BKN026 06/03 Q0993 TEMPO SHRA SCT015CB RMK WIND 2600FT 27018G33KT
ENTC 221250Z 21018KT 9999 VCSH FEW004 BKN030 06/03 Q0992 TEMPO SHRA SCT015CB RMK WIND 2600FT 25023G38KT
ENTC 221220Z 24017KT 9999 -SHRA FEW004 BKN030 06/02 Q0992 NOSIG RMK WIND 2600FT 25024G36KT
ENTC 221150Z 21018KT 9999 -SHRA FEW009 SCT027 BKN037 06/02 Q0991 NOSIG RMK WIND 2600FT 27017G30KT
ENTC 221120Z 27020KT 9999 -RA FEW027 SCT039 BKN049 07/01 Q0991 NOSIG RMK WIND 2600FT 25029G41KT
ENTC 221050Z 25015KT 9999 -SHRA FEW013 SCT031 BKN037 06/02 Q0990 NOSIG RMK WIND 2600FT 26027KT
ENTC 221020Z 24017KT 9999 -SHRA FEW011 SCT031 BKN045 07/01 Q0989 NOSIG RMK WIND 2600FT 26027G39KT
ENTC 220950Z 24014KT 9999 VCSH FEW011 SCT026 BKN039 06/02 Q0989 TEMPO BKN012 RMK WIND 2600FT 26029G46KT
ENTC 220920Z 23014KT 9999 FEW024 BKN036 06/02 Q0988 TEMPO BKN012 RMK WIND 2600FT 27024KT
ENTC 220850Z 27023KT 9999 -SHRA FEW014 SCT031 BKN048 06/02 Q0987 TEMPO BKN012 RMK WIND 2600FT 27023G35KT
ENTC 220820Z 24019G32KT 9999 VCSH FEW014 SCT038 BKN048 06/02 Q0986 TEMPO BKN012 RMK WIND 2600FT 27026G37KT
ENTC 220750Z 25010KT 210V270 9999 VCSH SCT017 BKN029 07/02 Q0986 TEMPO BKN012 RMK WIND 2600FT 27027KT
ENTC 220720Z 27018KT 9999 VCSH SCT017 BKN029 08/02 Q0985 TEMPO BKN012 RMK WIND 2600FT 28031G45KT
ENTC 220650Z 26018KT 9999 -DZ SCT017 BKN032 07/02 Q0984 TEMPO BKN012 RMK WIND 2600FT 28028G41KT
ENTC 220620Z 26025G36KT 9999 RA SCT017 BKN032 06/04 Q0984 TEMPO 27028G40KT 4500 SHRA BKN014CB RMK WIND 2600FT 30033G44KT
ENTC 220550Z 27026KT 8000 -RA SCT020 BKN034 08/02 Q0983 TEMPO 27028G40KT 4500 SHRA BKN014CB RMK WIND 2600FT 29034G50KT
ENTC 220520Z 26026G43KT 8000 -RA SCT020 BKN031 07/02 Q0983 TEMPO 25020KT 4500 SHRA BKN014CB RMK WIND 2600FT 29028G46KT
ENTC 220450Z 27024G38KT 8000 -RA FEW006 SCT020 BKN033 07/03 Q0982 RMK WIND 2600FT 28035G48KT
ENTC 220420Z 28027KT 5000 -RA FEW006 SCT020 BKN033 07/04 Q0982 RMK WIND 2600FT 29034G52KT
ENTC 220350Z 28027KT 4000 RA FEW006 SCT020 BKN033 07/04 Q0981 RMK WIND 2600FT 29038G50KT
ENTC 220250Z 28026KT 4500 RA FEW006 SCT020 BKN034 07/04 Q0979 RMK WIND 2600FT 30051G69KT
ENTC 220220Z 27034KT 4000 RA FEW006 SCT020 BKN031 07/05 Q0978 RMK WIND 2600FT 30045G58KT
ENTC 220120Z 27022G34KT 5000 RA FEW006 SCT020 BKN034 08/05 Q0976 RMK WIND 2600FT 28037G56KT
ENTC 220050Z 26022G35KT 5000 RA FEW006 SCT020 BKN035 08/05 Q0975 RMK WIND 2600FT 27031G44KT
ENTC 220020Z 27024KT 7000 RA FEW006 SCT020 BKN032 08/05 Q0975 RMK WIND 2600FT 28040G55KT
ENTC 212350Z 25020G33KT 6000 RA FEW014 SCT025 BKN035 08/05 Q0974 RMK WIND 2600FT 26034G49KT
ENTC 212320Z 24014KT 8000 RA FEW014 SCT025 BKN035 08/05 Q0974 RMK WIND 2600FT 26040G57KT
ENTC 212250Z 22011KT 7000 RA FEW006 SCT014 BKN036 07/04 Q0974 RMK WIND 2600FT 27023G39KT
ENTC 212220Z 24013KT 8000 RA FEW007 SCT028 BKN037 08/05 Q0973 RMK WIND 2600FT 28022KT
ENTC 212150Z 28016KT 6000 RA FEW006 SCT026 BKN033 08/05 Q0972 RMK WIND 2600FT 30035G46KT
ENTC 212120Z 21019KT 5000 RA FEW005 BKN022 06/04 Q0971 RMK WIND 2600FT 25025G39KT
ENTC 212050Z 22018KT 6000 -RA FEW016 BKN025 07/05 Q0971 TEMPO RA RMK WIND 2600FT 24034G50KT
ENTC 212020Z 21017KT 7000 -RA FEW016 BKN023 07/05 Q0971 TEMPO SHRA RMK WIND 2600FT 25043G61KT
ENTC 211950Z 21016KT 8000 SHRA FEW015 BKN025 07/05 Q0971 TEMPO NSW RMK WIND 2600FT 25045G65KT